Time;durP1;ratioP1;P1;durP2;ratioP2;P2;SDS_P1;SDS_P2;PMS_P1;PMS_P2;Temp;Humidity;BMP_temperature;BMP_pressure;BME280_temperature;BME280_humidity;BME280_pressure;Samples;Min_cycle;Max_cycle;Signal;HPM_P1;HPM_P2
2022/12/08 00:09:20;;;;;;;3.88;3.15;;;;;;;;;;10431458;28;20253;-78
2022/12/08 00:09:59;;;;;;;5.13;3.22;;;;;;;;;;10429987;28;20298;-79
2022/12/08 00:15:00;;;;;;;3.40;2.90;;;;;;;;;;10431909;28;20207;-79
2022/12/08 00:20:01;;;;;;;12.00;7.20;;;;;;;;;;10399191;28;20346;-78
2022/12/08 00:25:02;;;;;;;4.47;3.60;;;;;;;;;;10411735;28;20211;-78
2022/12/08 00:30:04;;;;;;;4.72;3.25;;;;;;;;;;10425395;28;20199;-78
2022/12/08 00:35:05;;;;;;;7.10;3.15;;;;;;;;;;10434607;28;20227;-79
2022/12/08 00:40:07;;;;;;;3.85;2.63;;;;;;;;;;10460075;28;20210;-78
2022/12/08 00:45:08;;;;;;;7.18;2.90;;;;;;;;;;10452634;28;20206;-79
2022/12/08 00:50:09;;;;;;;5.03;2.90;;;;;;;;;;10454578;28;20195;-78
2022/12/08 00:55:10;;;;;;;5.35;3.28;;;;;;;;;;10436654;28;20703;-79
2022/12/08 01:00:12;;;;;;;5.05;2.67;;;;;;;;;;10396002;28;20193;-78
2022/12/08 01:05:13;;;;;;;3.05;2.80;;;;;;;;;;10424606;28;20297;-78
2022/12/08 01:10:14;;;;;;;4.80;2.30;;;;;;;;;;10410127;28;20872;-79
2022/12/08 01:15:16;;;;;;;3.92;3.15;;;;;;;;;;10422427;28;20201;-79
2022/12/08 01:20:17;;;;;;;2.80;2.45;;;;;;;;;;10428582;28;20210;-79
2022/12/08 01:25:18;;;;;;;2.95;2.80;;;;;;;;;;10409940;28;20256;-79
2022/12/08 01:30:19;;;;;;;2.38;2.17;;;;;;;;;;10426808;28;20194;-80
2022/12/08 01:35:20;;;;;;;4.18;3.00;;;;;;;;;;10430229;28;20224;-80
2022/12/08 01:40:21;;;;;;;3.15;2.80;;;;;;;;;;10398323;28;20235;-80
2022/12/08 01:45:25;;;;;;;3.55;3.08;;;;;;;;;;10411497;28;20215;-80
2022/12/08 01:50:27;;;;;;;5.22;2.88;;;;;;;;;;10419282;28;20219;-80
2022/12/08 01:55:34;;;;;;;5.63;3.22;;;;;;;;;;10407365;28;20208;-80
2022/12/08 02:00:35;;;;;;;3.70;3.40;;;;;;;;;;10402774;28;20667;-80
2022/12/08 02:05:38;;;;;;;4.03;3.38;;;;;;;;;;10430303;28;20947;-82
2022/12/08 02:10:40;;;;;;;4.20;3.35;;;;;;;;;;10418788;28;21032;-79
2022/12/08 02:15:48;;;;;;;7.93;3.53;;;;;;;;;;10405557;28;20591;-81
2022/12/08 02:20:55;;;;;;;3.90;2.70;;;;;;;;;;10395072;28;20207;-79
2022/12/08 02:26:15;;;;;;;8.88;2.70;;;;;;;;;;10418389;28;20894;-80
2022/12/08 02:31:16;;;;;;;2.90;2.15;;;;;;;;;;10419428;28;20218;-80
2022/12/08 02:36:26;;;;;;;4.93;2.67;;;;;;;;;;10396682;28;20267;-79
2022/12/08 02:41:48;;;;;;;2.42;2.22;;;;;;;;;;10382804;28;20353;-80
2022/12/08 02:46:52;;;;;;;6.18;2.10;;;;;;;;;;10381801;28;20243;-79
2022/12/08 02:52:03;;;;;;;2.60;2.40;;;;;;;;;;10376755;28;20219;-80
2022/12/08 02:57:27;;;;;;;2.55;2.38;;;;;;;;;;10383499;28;20274;-80
2022/12/08 03:02:47;;;;;;;4.95;2.75;;;;;;;;;;10388608;28;20235;-79
2022/12/08 03:07:53;;;;;;;3.10;2.78;;;;;;;;;;10384765;28;20563;-79
2022/12/08 03:13:14;;;;;;;2.70;2.50;;;;;;;;;;10399826;28;20224;-80
2022/12/08 03:18:16;;;;;;;5.40;2.65;;;;;;;;;;10402669;28;20219;-79
2022/12/08 03:23:19;;;;;;;3.08;2.80;;;;;;;;;;10384187;28;20223;-79
2022/12/08 03:28:20;;;;;;;3.30;3.00;;;;;;;;;;10384849;28;20253;-79
2022/12/08 03:33:30;;;;;;;3.92;3.20;;;;;;;;;;10386529;28;20222;-80
2022/12/08 03:38:41;;;;;;;4.30;3.35;;;;;;;;;;10424075;28;20211;-79
2022/12/08 03:43:43;;;;;;;4.30;3.25;;;;;;;;;;10420658;28;20223;-80
2022/12/08 03:48:44;;;;;;;3.17;2.88;;;;;;;;;;10422938;28;20229;-79
2022/12/08 03:53:45;;;;;;;6.10;3.58;;;;;;;;;;10421530;28;20214;-79
2022/12/08 03:58:46;;;;;;;5.57;3.50;;;;;;;;;;10422277;28;20216;-79
2022/12/08 04:03:47;;;;;;;6.38;4.25;;;;;;;;;;10422574;28;20210;-79
2022/12/08 04:08:49;;;;;;;4.93;3.85;;;;;;;;;;10427540;28;20945;-78
2022/12/08 04:13:50;;;;;;;4.45;3.55;;;;;;;;;;10426846;28;20215;-79
2022/12/08 04:18:51;;;;;;;5.97;4.60;;;;;;;;;;10429848;28;20223;-78
2022/12/08 04:23:52;;;;;;;5.28;3.47;;;;;;;;;;10408406;28;20306;-79
2022/12/08 04:28:53;;;;;;;6.22;4.05;;;;;;;;;;10424279;28;20719;-79
2022/12/08 04:33:54;;;;;;;7.43;3.97;;;;;;;;;;10420674;28;20696;-78
2022/12/08 04:38:55;;;;;;;5.85;4.55;;;;;;;;;;10431703;28;20210;-79
2022/12/08 04:43:57;;;;;;;10.40;4.00;;;;;;;;;;10417196;28;20216;-79
2022/12/08 04:48:58;;;;;;;6.28;3.88;;;;;;;;;;10411719;28;20224;-79
2022/12/08 04:53:59;;;;;;;4.13;3.40;;;;;;;;;;10418957;28;20222;-79
2022/12/08 04:59:00;;;;;;;8.63;3.95;;;;;;;;;;10424359;28;20512;-79
2022/12/08 05:04:01;;;;;;;8.02;4.25;;;;;;;;;;10420357;28;20536;-78
2022/12/08 05:09:02;;;;;;;6.38;4.00;;;;;;;;;;10415951;28;20233;-78
2022/12/08 05:14:03;;;;;;;6.70;4.38;;;;;;;;;;10423807;28;20631;-78
2022/12/08 05:19:04;;;;;;;5.93;4.55;;;;;;;;;;10420871;28;20210;-78
2022/12/08 05:24:06;;;;;;;4.70;4.00;;;;;;;;;;10426191;28;20210;-79
2022/12/08 05:29:07;;;;;;;6.40;4.28;;;;;;;;;;10402323;28;20493;-78
2022/12/08 05:34:08;;;;;;;6.28;4.30;;;;;;;;;;10389714;28;20230;-78
2022/12/08 05:39:12;;;;;;;9.48;3.80;;;;;;;;;;10418900;28;20214;-78
2022/12/08 05:44:13;;;;;;;5.80;4.32;;;;;;;;;;10408531;28;20222;-79
2022/12/08 05:49:14;;;;;;;8.80;3.90;;;;;;;;;;10408768;28;20828;-79
2022/12/08 05:54:16;;;;;;;8.80;4.25;;;;;;;;;;10413962;28;20241;-79
2022/12/08 05:59:17;;;;;;;9.50;4.18;;;;;;;;;;10422812;28;20273;-78
2022/12/08 06:04:18;;;;;;;6.20;4.88;;;;;;;;;;10416599;28;20225;-79
2022/12/08 06:09:20;;;;;;;5.72;4.30;;;;;;;;;;10413007;28;20250;-79
2022/12/08 06:14:21;;;;;;;8.27;4.55;;;;;;;;;;10400857;28;20210;-78
2022/12/08 06:19:22;;;;;;;7.88;4.32;;;;;;;;;;10408669;28;20616;-78
2022/12/08 06:24:23;;;;;;;4.75;3.78;;;;;;;;;;10421881;28;20213;-79
2022/12/08 06:29:24;;;;;;;4.45;3.35;;;;;;;;;;10417678;28;20219;-78
2022/12/08 06:34:25;;;;;;;4.20;3.85;;;;;;;;;;10397645;28;20250;-79
2022/12/08 06:39:27;;;;;;;5.32;3.67;;;;;;;;;;10425644;28;20215;-78
2022/12/08 06:44:28;;;;;;;5.63;3.58;;;;;;;;;;10407237;28;20239;-82
2022/12/08 06:49:29;;;;;;;4.78;4.07;;;;;;;;;;10424318;28;20227;-82
2022/12/08 06:54:30;;;;;;;4.35;3.42;;;;;;;;;;10414773;28;20206;-82
2022/12/08 06:59:31;;;;;;;3.60;2.83;;;;;;;;;;10399465;28;20223;-83
2022/12/08 07:04:32;;;;;;;6.18;4.10;;;;;;;;;;10402193;28;20207;-81
2022/12/08 07:09:33;;;;;;;5.10;2.67;;;;;;;;;;10388347;28;20227;-78
2022/12/08 07:14:34;;;;;;;9.30;3.50;;;;;;;;;;10413775;28;20218;-83
2022/12/08 07:19:35;;;;;;;4.40;3.58;;;;;;;;;;10414236;28;20219;-81
2022/12/08 07:24:36;;;;;;;6.00;3.83;;;;;;;;;;10416448;28;20678;-80
2022/12/08 07:29:37;;;;;;;4.20;3.63;;;;;;;;;;10405464;28;20743;-83
2022/12/08 07:34:38;;;;;;;3.08;2.97;;;;;;;;;;10386140;28;20277;-81
2022/12/08 07:39:39;;;;;;;3.67;3.25;;;;;;;;;;10402093;28;20800;-80
2022/12/08 07:44:40;;;;;;;5.25;3.35;;;;;;;;;;10420271;28;20210;-82
2022/12/08 07:49:42;;;;;;;5.03;3.65;;;;;;;;;;10393244;28;20219;-82
2022/12/08 07:54:43;;;;;;;7.35;3.95;;;;;;;;;;10423784;28;20213;-81
2022/12/08 07:59:44;;;;;;;5.38;4.00;;;;;;;;;;10426467;28;20910;-81
2022/12/08 08:04:45;;;;;;;6.25;4.18;;;;;;;;;;10426846;28;20250;-81
2022/12/08 08:09:46;;;;;;;5.95;3.63;;;;;;;;;;10417485;28;20207;-81
2022/12/08 08:14:47;;;;;;;5.82;3.55;;;;;;;;;;10457680;28;20293;-83
2022/12/08 08:19:48;;;;;;;3.58;3.28;;;;;;;;;;10463182;28;20396;-82
2022/12/08 08:24:50;;;;;;;6.40;4.53;;;;;;;;;;10429653;28;20207;-81
2022/12/08 08:29:53;;;;;;;7.22;4.22;;;;;;;;;;10419349;28;20207;-84
2022/12/08 08:34:57;;;;;;;4.07;3.60;;;;;;;;;;10394882;28;20455;-82
2022/12/08 08:39:59;;;;;;;4.85;3.92;;;;;;;;;;10412801;28;20381;-82
2022/12/08 08:45:01;;;;;;;6.28;4.18;;;;;;;;;;10427245;28;20219;-83
2022/12/08 08:50:03;;;;;;;7.35;4.57;;;;;;;;;;10408222;28;20215;-82
2022/12/08 08:55:04;;;;;;;5.82;3.35;;;;;;;;;;10415728;28;20236;-82
2022/12/08 09:00:09;;;;;;;7.32;4.15;;;;;;;;;;10419204;28;20196;-82
2022/12/08 09:05:10;;;;;;;4.88;3.50;;;;;;;;;;10398135;28;20211;-82
2022/12/08 09:10:14;;;;;;;3.67;3.28;;;;;;;;;;10427890;28;20190;-83
2022/12/08 09:15:16;;;;;;;6.95;3.80;;;;;;;;;;10418859;28;20179;-84
2022/12/08 09:20:17;;;;;;;3.50;3.30;;;;;;;;;;10413714;28;20195;-82
2022/12/08 09:25:20;;;;;;;5.07;4.60;;;;;;;;;;10411355;28;20210;-85
2022/12/08 09:30:24;;;;;;;7.20;3.13;;;;;;;;;;10390975;28;20219;-85
2022/12/08 09:35:25;;;;;;;4.20;3.80;;;;;;;;;;10412828;28;20696;-83
2022/12/08 09:40:29;;;;;;;3.38;2.97;;;;;;;;;;10378772;28;20746;-83
2022/12/08 09:45:33;;;;;;;2.70;2.55;;;;;;;;;;10416210;28;20225;-86
2022/12/08 09:50:45;;;;;;;5.43;3.15;;;;;;;;;;10419199;28;20208;-86
2022/12/08 09:55:48;;;;;;;3.63;3.33;;;;;;;;;;10436434;28;20544;-82
2022/12/08 10:00:49;;;;;;;4.40;3.17;;;;;;;;;;10426278;28;20313;-82
2022/12/08 10:05:58;;;;;;;5.30;3.13;;;;;;;;;;10398395;28;20341;-83
2022/12/08 10:11:03;;;;;;;4.00;3.17;;;;;;;;;;10422403;28;20218;-82
2022/12/08 10:16:20;;;;;;;3.10;2.80;;;;;;;;;;10384322;28;20218;-83
2022/12/08 10:21:24;;;;;;;3.42;2.58;;;;;;;;;;10403599;28;20211;-83
2022/12/08 10:26:25;;;;;;;3.45;2.97;;;;;;;;;;10397718;28;20322;-83
2022/12/08 10:31:29;;;;;;;3.40;3.20;;;;;;;;;;10395327;28;20250;-83
2022/12/08 10:36:50;;;;;;;3.90;3.58;;;;;;;;;;10418233;28;20290;-83
2022/12/08 10:41:51;;;;;;;3.90;3.45;;;;;;;;;;10410534;28;20230;-82
2022/12/08 10:46:52;;;;;;;4.85;3.65;;;;;;;;;;10419312;28;20254;-83
2022/12/08 10:51:53;;;;;;;3.70;3.38;;;;;;;;;;10404118;28;20218;-82
2022/12/08 10:56:56;;;;;;;4.43;3.70;;;;;;;;;;10422622;28;20217;-82
2022/12/08 11:01:57;;;;;;;3.80;3.55;;;;;;;;;;10421354;28;20244;-82
2022/12/08 11:06:58;;;;;;;3.47;3.17;;;;;;;;;;10419813;28;20226;-83
2022/12/08 11:12:05;;;;;;;4.25;3.78;;;;;;;;;;10420661;28;20714;-81
2022/12/08 11:17:08;;;;;;;4.22;3.88;;;;;;;;;;10397915;28;20711;-83
2022/12/08 11:22:28;;;;;;;4.13;3.80;;;;;;;;;;10420059;28;20311;-82
2022/12/08 11:27:30;;;;;;;3.53;3.22;;;;;;;;;;10406798;28;20713;-83
2022/12/08 11:32:31;;;;;;;4.05;3.63;;;;;;;;;;10420212;28;20313;-81
2022/12/08 11:37:36;;;;;;;3.10;2.90;;;;;;;;;;10425051;28;20245;-82
2022/12/08 11:42:43;;;;;;;3.63;3.33;;;;;;;;;;10425473;28;20218;-83
2022/12/08 11:48:01;;;;;;;3.28;2.97;;;;;;;;;;10407172;28;20306;-83
2022/12/08 11:53:02;;;;;;;3.20;2.83;;;;;;;;;;10379137;28;20215;-83
2022/12/08 11:58:16;;;;;;;4.38;2.92;;;;;;;;;;10415985;28;20219;-83
2022/12/08 12:03:39;;;;;;;4.55;2.17;;;;;;;;;;10397647;28;20365;-81
2022/12/08 12:08:47;;;;;;;3.05;2.85;;;;;;;;;;10423481;28;20329;-82
2022/12/08 12:14:11;;;;;;;6.20;3.40;;;;;;;;;;10409924;28;20306;-82
2022/12/08 12:19:14;;;;;;;4.05;2.60;;;;;;;;;;10420078;28;20229;-83
2022/12/08 12:24:20;;;;;;;2.22;2.10;;;;;;;;;;10414865;28;20215;-80
2022/12/08 12:29:22;;;;;;;2.08;2.03;;;;;;;;;;10393421;28;20270;-81
2022/12/08 12:34:25;;;;;;;1.85;1.85;;;;;;;;;;10425512;28;20234;-82
2022/12/08 12:39:30;;;;;;;1.60;1.58;;;;;;;;;;10424658;28;20230;-82
2022/12/08 12:44:31;;;;;;;1.73;1.63;;;;;;;;;;10411151;28;20203;-82
2022/12/08 12:49:39;;;;;;;2.05;1.95;;;;;;;;;;10418529;28;20245;-82
2022/12/08 12:54:45;;;;;;;2.42;2.33;;;;;;;;;;10406317;28;20262;-80
2022/12/08 12:59:47;;;;;;;2.08;1.92;;;;;;;;;;10409088;28;20230;-81
2022/12/08 13:04:53;;;;;;;2.30;2.15;;;;;;;;;;10420934;28;20203;-83
2022/12/08 13:09:57;;;;;;;2.60;2.40;;;;;;;;;;10427623;28;20239;-82
2022/12/08 13:15:02;;;;;;;2.40;2.20;;;;;;;;;;10428667;28;20252;-83
2022/12/08 13:20:05;;;;;;;1.73;1.70;;;;;;;;;;10407256;28;20214;-81
2022/12/08 13:25:26;;;;;;;2.00;1.90;;;;;;;;;;10426842;28;20297;-83
2022/12/08 13:30:41;;;;;;;1.75;1.65;;;;;;;;;;10406460;28;20836;-82
2022/12/08 13:35:46;;;;;;;1.40;1.40;;;;;;;;;;10421968;28;20301;-81
2022/12/08 13:40:48;;;;;;;1.58;1.58;;;;;;;;;;10424659;28;20283;-82
2022/12/08 13:45:50;;;;;;;1.52;1.52;;;;;;;;;;10425809;28;20223;-82
2022/12/08 13:50:52;;;;;;;1.70;1.70;;;;;;;;;;10425367;28;20607;-82
2022/12/08 13:56:00;;;;;;;1.67;1.58;;;;;;;;;;10403282;28;20218;-81
2022/12/08 14:01:21;;;;;;;1.40;1.40;;;;;;;;;;10394305;28;20215;-82
2022/12/08 14:06:28;;;;;;;1.58;1.52;;;;;;;;;;10430205;28;20694;-81
2022/12/08 14:11:39;;;;;;;1.80;1.70;;;;;;;;;;10418123;28;20215;-82
2022/12/08 14:16:41;;;;;;;2.35;1.58;;;;;;;;;;10426917;28;20218;-83
2022/12/08 14:21:46;;;;;;;1.80;1.70;;;;;;;;;;10431958;28;20312;-81
2022/12/08 14:26:49;;;;;;;1.80;1.70;;;;;;;;;;10431903;28;20216;-81
2022/12/08 14:31:52;;;;;;;1.65;1.55;;;;;;;;;;10424330;28;20242;-82
2022/12/08 14:36:53;;;;;;;2.17;1.95;;;;;;;;;;10401902;28;20261;-81
2022/12/08 14:41:58;;;;;;;1.58;1.48;;;;;;;;;;10434243;28;20260;-82
2022/12/08 14:47:07;;;;;;;1.48;1.40;;;;;;;;;;10429978;28;20343;-82
2022/12/08 14:52:10;;;;;;;3.35;1.17;;;;;;;;;;10441880;28;20211;-83
2022/12/08 14:57:13;;;;;;;2.33;2.22;;;;;;;;;;10433186;28;20237;-82
2022/12/08 15:02:14;;;;;;;1.92;1.83;;;;;;;;;;10449500;28;20218;-81
2022/12/08 15:07:21;;;;;;;2.53;2.33;;;;;;;;;;10438783;28;20593;-82
2022/12/08 15:12:24;;;;;;;2.30;2.20;;;;;;;;;;10430302;28;20218;-82
2022/12/08 15:17:28;;;;;;;3.17;1.90;;;;;;;;;;10401564;28;20213;-81
2022/12/08 15:22:30;;;;;;;1.98;1.88;;;;;;;;;;10407513;28;20223;-80
2022/12/08 15:27:31;;;;;;;2.20;2.20;;;;;;;;;;10416403;28;20258;-80
2022/12/08 15:32:32;;;;;;;1.90;1.80;;;;;;;;;;10381895;28;20618;-80
2022/12/08 15:37:33;;;;;;;2.13;2.03;;;;;;;;;;10386796;28;20600;-80
2022/12/08 15:42:34;;;;;;;2.30;2.20;;;;;;;;;;10369633;28;20250;-80
2022/12/08 15:47:35;;;;;;;2.83;2.65;;;;;;;;;;10369908;28;20295;-79
2022/12/08 15:52:36;;;;;;;2.60;2.50;;;;;;;;;;10374950;28;20691;-80
2022/12/08 15:57:37;;;;;;;2.83;2.60;;;;;;;;;;10371513;28;20214;-79
2022/12/08 16:02:38;;;;;;;2.33;2.22;;;;;;;;;;10375249;28;20652;-79
2022/12/08 16:07:40;;;;;;;3.45;3.25;;;;;;;;;;10383735;28;20319;-79
2022/12/08 16:18:01;;;;;;;3.35;3.15;;;;;;;;;;10384549;28;20241;-79
2022/12/08 16:23:02;;;;;;;3.60;3.28;;;;;;;;;;10383466;28;20241;-78
2022/12/08 16:28:03;;;;;;;3.78;3.20;;;;;;;;;;10399045;28;20219;-79
2022/12/08 16:33:04;;;;;;;3.88;3.53;;;;;;;;;;10366417;28;20322;-78
2022/12/08 16:38:05;;;;;;;3.45;3.13;;;;;;;;;;10407441;28;20897;-79
2022/12/08 16:43:08;;;;;;;3.45;3.17;;;;;;;;;;10380663;28;20215;-79
2022/12/08 16:48:12;;;;;;;3.88;3.00;;;;;;;;;;10422509;28;20222;-79
2022/12/08 16:53:14;;;;;;;3.30;3.10;;;;;;;;;;10407028;28;20264;-79
2022/12/08 16:58:17;;;;;;;3.45;3.15;;;;;;;;;;10403423;28;20466;-79
2022/12/08 17:03:18;;;;;;;3.55;3.25;;;;;;;;;;10424297;28;20283;-79
2022/12/08 17:08:19;;;;;;;2.97;2.80;;;;;;;;;;10389408;28;20226;-79
2022/12/08 17:13:20;;;;;;;3.83;3.42;;;;;;;;;;10422717;28;20317;-79
2022/12/08 17:18:21;;;;;;;3.55;3.25;;;;;;;;;;10397323;28;20210;-79
2022/12/08 17:23:22;;;;;;;3.70;3.40;;;;;;;;;;10420371;28;20244;-79
2022/12/08 17:28:23;;;;;;;3.70;3.13;;;;;;;;;;10412191;28;20305;-79
2022/12/08 17:33:24;;;;;;;3.05;2.88;;;;;;;;;;10396187;28;20294;-79
2022/12/08 17:38:25;;;;;;;4.25;3.85;;;;;;;;;;10391415;28;20257;-78
2022/12/08 17:43:26;;;;;;;5.20;3.95;;;;;;;;;;10398974;28;20330;-78
2022/12/08 17:48:28;;;;;;;4.57;4.18;;;;;;;;;;10394255;28;20241;-81
2022/12/08 17:53:29;;;;;;;5.07;4.53;;;;;;;;;;10400898;28;20331;-79
2022/12/08 17:58:30;;;;;;;5.03;4.53;;;;;;;;;;10395134;28;20217;-80
2022/12/08 18:03:31;;;;;;;4.93;4.03;;;;;;;;;;10385525;28;20265;-79
2022/12/08 18:08:32;;;;;;;5.18;4.32;;;;;;;;;;10410387;28;20237;-78
2022/12/08 18:13:33;;;;;;;10.57;6.88;;;;;;;;;;10409787;28;20202;-78
2022/12/08 18:18:34;;;;;;;7.32;5.53;;;;;;;;;;10413185;28;20206;-77
2022/12/08 18:23:40;;;;;;;4.95;4.15;;;;;;;;;;10408245;28;20227;-78
2022/12/08 18:28:42;;;;;;;6.35;5.70;;;;;;;;;;10412227;28;20215;-78
2022/12/08 18:33:44;;;;;;;5.07;4.68;;;;;;;;;;10406123;28;20816;-78
2022/12/08 18:38:46;;;;;;;5.93;5.30;;;;;;;;;;10394033;28;20298;-77
2022/12/08 18:43:47;;;;;;;9.88;6.53;;;;;;;;;;10401146;28;20226;-79
2022/12/08 18:48:49;;;;;;;11.50;7.18;;;;;;;;;;10403507;28;20222;-78
2022/12/08 18:53:51;;;;;;;7.95;5.47;;;;;;;;;;10410764;28;20211;-77
2022/12/08 18:58:52;;;;;;;5.75;5.30;;;;;;;;;;10407314;28;20206;-78
2022/12/08 19:03:53;;;;;;;7.65;6.15;;;;;;;;;;10400342;28;20784;-79
2022/12/08 19:08:55;;;;;;;21.77;11.25;;;;;;;;;;10393768;28;20591;-79
2022/12/08 19:13:56;;;;;;;14.65;8.73;;;;;;;;;;10405587;28;20207;-78
2022/12/08 19:18:57;;;;;;;11.32;7.50;;;;;;;;;;10429935;28;20206;-80
2022/12/08 19:23:58;;;;;;;13.02;8.02;;;;;;;;;;10409568;28;20229;-79
2022/12/08 19:28:59;;;;;;;60.65;21.50;;;;;;;;;;10403600;28;20219;-78
2022/12/08 19:34:01;;;;;;;26.98;11.77;;;;;;;;;;10411103;28;20233;-79
2022/12/08 19:49:34;;;;;;;16.70;10.00;;;;;;;;;;10412481;28;20318;-79
2022/12/08 19:54:36;;;;;;;13.20;8.82;;;;;;;;;;10416073;28;20319;-78
2022/12/08 19:59:38;;;;;;;16.73;9.10;;;;;;;;;;10408755;28;20728;-79
2022/12/08 20:04:39;;;;;;;15.85;9.40;;;;;;;;;;10415510;28;20221;-79
2022/12/08 20:09:40;;;;;;;20.58;11.18;;;;;;;;;;10415829;28;20227;-78
2022/12/08 20:14:41;;;;;;;16.98;12.20;;;;;;;;;;10414404;28;21300;-78
2022/12/08 20:19:42;;;;;;;23.50;11.73;;;;;;;;;;10402723;28;20218;-78
2022/12/08 20:24:43;;;;;;;17.35;10.27;;;;;;;;;;10392082;28;20249;-78
2022/12/08 20:29:44;;;;;;;16.48;10.60;;;;;;;;;;10396163;28;20223;-78
2022/12/08 20:34:46;;;;;;;14.93;9.50;;;;;;;;;;10390428;28;20466;-78
2022/12/08 20:39:47;;;;;;;12.50;8.10;;;;;;;;;;10408419;28;20287;-78
2022/12/08 20:44:48;;;;;;;13.30;10.07;;;;;;;;;;10415564;28;20245;-78
2022/12/08 20:49:49;;;;;;;11.15;7.63;;;;;;;;;;10402989;28;20268;-78
2022/12/08 20:54:50;;;;;;;14.50;8.57;;;;;;;;;;10421655;28;20896;-78
2022/12/08 20:59:51;;;;;;;12.95;8.00;;;;;;;;;;10416352;28;20738;-78
2022/12/08 21:04:53;;;;;;;15.25;9.40;;;;;;;;;;10423407;28;20980;-78
2022/12/08 21:09:54;;;;;;;15.65;9.13;;;;;;;;;;10415956;28;20218;-78
2022/12/08 21:14:55;;;;;;;15.23;9.65;;;;;;;;;;10422405;28;20238;-78
2022/12/08 21:19:56;;;;;;;30.08;14.75;;;;;;;;;;10423912;28;20222;-78
2022/12/08 21:24:57;;;;;;;12.00;8.35;;;;;;;;;;10391400;28;20203;-78
2022/12/08 21:29:58;;;;;;;10.85;6.88;;;;;;;;;;10417619;28;20229;-78
2022/12/08 21:35:00;;;;;;;11.90;7.07;;;;;;;;;;10419080;28;20307;-78
2022/12/08 21:40:01;;;;;;;9.88;6.63;;;;;;;;;;10407875;28;20241;-78
2022/12/08 21:45:02;;;;;;;12.77;6.85;;;;;;;;;;10412277;28;20309;-78
2022/12/08 21:50:04;;;;;;;8.35;5.88;;;;;;;;;;10418178;28;20206;-79
2022/12/08 21:55:05;;;;;;;8.38;6.68;;;;;;;;;;10420492;28;20171;-79
2022/12/08 22:00:07;;;;;;;9.20;6.25;;;;;;;;;;10425856;28;20195;-79
2022/12/08 22:05:08;;;;;;;9.57;6.82;;;;;;;;;;10438656;28;20179;-79
2022/12/08 22:10:10;;;;;;;12.88;7.28;;;;;;;;;;10430957;28;20283;-78
2022/12/08 22:15:11;;;;;;;17.88;9.43;;;;;;;;;;10419098;28;20195;-79
2022/12/08 22:20:14;;;;;;;13.02;8.13;;;;;;;;;;10404744;28;20203;-79
2022/12/08 22:25:21;;;;;;;14.95;8.50;;;;;;;;;;10521290;27;20567;-70
2022/12/08 22:30:23;;;;;;;9.70;6.57;;;;;;;;;;10415245;28;20224;-70
2022/12/08 22:35:24;;;;;;;7.55;5.68;;;;;;;;;;10435751;28;20353;-68
2022/12/08 22:40:25;;;;;;;8.25;6.53;;;;;;;;;;10413875;28;20215;-69
2022/12/08 22:45:26;;;;;;;7.97;6.03;;;;;;;;;;10408571;28;20216;-69
2022/12/08 22:50:27;;;;;;;8.93;5.25;;;;;;;;;;10412539;28;20694;-70
2022/12/08 22:55:28;;;;;;;10.25;6.28;;;;;;;;;;10407358;28;20644;-69
2022/12/08 23:00:29;;;;;;;8.98;6.22;;;;;;;;;;10412311;28;20215;-70
2022/12/08 23:05:34;;;;;;;8.50;5.93;;;;;;;;;;10413082;28;20265;-70
2022/12/08 23:10:35;;;;;;;13.60;6.00;;;;;;;;;;10412413;28;20211;-69
2022/12/08 23:15:37;;;;;;;9.50;6.60;;;;;;;;;;10410918;28;20853;-69
2022/12/08 23:20:38;;;;;;;7.68;6.10;;;;;;;;;;10421017;28;20214;-69
2022/12/08 23:25:43;;;;;;;9.30;5.82;;;;;;;;;;10459319;27;20225;-69
2022/12/08 23:30:44;;;;;;;6.90;5.75;;;;;;;;;;10470815;28;20211;-70
2022/12/08 23:35:45;;;;;;;10.93;5.55;;;;;;;;;;10454602;28;20228;-69
2022/12/08 23:40:46;;;;;;;12.45;6.18;;;;;;;;;;10430274;28;20306;-69
2022/12/08 23:45:47;;;;;;;6.53;5.10;;;;;;;;;;10424127;28;20224;-70
2022/12/08 23:50:48;;;;;;;7.70;4.72;;;;;;;;;;10422978;28;20229;-68
2022/12/08 23:55:49;;;;;;;8.35;4.82;;;;;;;;;;10422198;28;20218;-69
